Time;durP1;ratioP1;P1;durP2;ratioP2;P2;SDS_P1;SDS_P2;PMS_P1;PMS_P2;Temp;Humidity;BMP_temperature;BMP_pressure;BME280_temperature;BME280_humidity;BME280_pressure;Samples;Min_cycle;Max_cycle;Signal;HPM_P1;HPM_P2
2022/11/09 00:02:22;;;;;;;14.00;10.57;;;16.10;42.90;;;;;;5032439;28;20428;-44
2022/11/09 00:04:47;;;;;;;14.17;10.53;;;16.00;42.90;;;;;;5031889;28;20174;-45
2022/11/09 00:07:14;;;;;;;13.43;10.60;;;16.00;43.00;;;;;;5031530;28;20973;-44
2022/11/09 00:09:39;;;;;;;17.90;12.20;;;16.00;43.00;;;;;;5032077;28;20205;-44
2022/11/09 00:12:06;;;;;;;17.80;11.27;;;16.00;43.00;;;;;;5031905;28;20194;-45
2022/11/09 00:14:33;;;;;;;18.05;12.73;;;16.00;43.10;;;;;;5036447;28;20261;-44
2022/11/09 00:16:59;;;;;;;18.83;11.57;;;16.00;43.10;;;;;;5035902;28;20174;-45
2022/11/09 00:19:25;;;;;;;17.05;12.82;;;15.90;43.20;;;;;;5035982;28;20653;-45
2022/11/09 00:21:51;;;;;;;13.85;11.10;;;15.90;43.20;;;;;;5035826;28;20634;-44
2022/11/09 00:24:17;;;;;;;13.70;10.00;;;15.90;43.20;;;;;;5036309;28;20256;-45
2022/11/09 00:26:43;;;;;;;14.13;10.95;;;15.90;43.20;;;;;;5035348;28;20173;-45
2022/11/09 00:29:09;;;;;;;19.43;12.67;;;15.90;43.20;;;;;;5035710;28;20251;-45
2022/11/09 00:31:35;;;;;;;15.20;10.40;;;15.90;43.20;;;;;;5035805;28;20309;-45
2022/11/09 00:34:01;;;;;;;14.60;11.43;;;15.90;43.20;;;;;;5035582;28;20908;-44
2022/11/09 00:36:28;;;;;;;14.40;11.80;;;15.80;43.00;;;;;;5035135;28;20185;-46
2022/11/09 00:38:59;;;;;;;14.48;12.32;;;15.80;43.00;;;;;;5035658;28;20417;-45
2022/11/09 00:41:25;;;;;;;16.80;12.57;;;15.80;43.00;;;;;;5035553;28;20178;-46
2022/11/09 00:43:52;;;;;;;15.10;9.90;;;15.70;43.10;;;;;;5035375;28;20213;-44
2022/11/09 00:46:18;;;;;;;14.65;11.15;;;15.70;43.10;;;;;;5035345;28;20173;-44
2022/11/09 00:48:44;;;;;;;14.82;11.10;;;15.60;43.00;;;;;;5035212;28;20661;-45
2022/11/09 00:51:10;;;;;;;14.15;10.48;;;15.60;43.10;;;;;;5035694;28;20531;-44
2022/11/09 00:53:36;;;;;;;16.75;10.85;;;15.60;43.70;;;;;;5035368;28;20189;-44
2022/11/09 00:56:05;;;;;;;20.45;11.88;;;15.60;43.00;;;;;;5034674;28;20184;-45
2022/11/09 00:58:34;;;;;;;18.38;10.93;;;15.50;43.10;;;;;;5035487;28;20178;-44
2022/11/09 01:01:06;;;;;;;15.73;12.00;;;15.50;43.10;;;;;;5035341;28;20186;-45
2022/11/09 01:03:32;;;;;;;12.07;10.75;;;15.50;43.10;;;;;;5033752;28;20201;-45
2022/11/09 01:06:00;;;;;;;13.10;9.80;;;15.50;43.10;;;;;;5034820;28;20182;-44
2022/11/09 01:08:26;;;;;;;15.50;11.35;;;15.40;43.10;;;;;;5035026;28;20204;-46
2022/11/09 01:10:52;;;;;;;14.07;10.20;;;15.40;43.20;;;;;;5035119;28;20170;-44
2022/11/09 01:13:18;;;;;;;16.80;10.27;;;15.40;43.20;;;;;;5035244;28;20523;-45
2022/11/09 01:15:47;;;;;;;14.07;10.95;;;15.30;43.20;;;;;;5034236;28;20419;-44
2022/11/09 01:18:15;;;;;;;17.40;11.90;;;15.30;43.30;;;;;;5034893;28;20162;-45
2022/11/09 01:20:42;;;;;;;14.80;11.13;;;15.30;43.40;;;;;;5034867;28;20177;-45
2022/11/09 01:23:10;;;;;;;15.35;10.60;;;15.20;43.20;;;;;;5034768;28;20197;-44
2022/11/09 01:25:36;;;;;;;16.02;12.65;;;15.20;43.30;;;;;;5032912;28;20169;-45
2022/11/09 01:28:02;;;;;;;18.93;11.73;;;15.20;43.30;;;;;;5034746;28;20170;-44
2022/11/09 01:30:28;;;;;;;17.48;11.70;;;15.10;43.50;;;;;;5034529;28;20737;-45
2022/11/09 01:32:54;;;;;;;17.00;11.30;;;15.10;43.50;;;;;;5034451;28;20284;-44
2022/11/09 01:35:19;;;;;;;16.43;11.40;;;15.10;43.50;;;;;;5034557;28;20217;-44
2022/11/09 01:37:45;;;;;;;19.67;12.87;;;15.10;43.50;;;;;;5034066;28;20185;-44
2022/11/09 01:40:12;;;;;;;16.90;11.17;;;15.10;43.50;;;;;;5034444;28;20537;-44
2022/11/09 01:42:38;;;;;;;13.50;9.70;;;15.10;43.50;;;;;;5034152;28;21154;-44
2022/11/09 01:45:33;;;;;;;18.98;12.18;;;15.10;43.50;;;;;;5034607;28;20314;-45
2022/11/09 01:48:14;;;;;;;19.02;13.15;;;15.00;43.40;;;;;;5033883;28;20244;-44
2022/11/09 01:50:52;;;;;;;16.23;13.55;;;15.00;43.50;;;;;;5034581;28;20169;-44
2022/11/09 01:53:22;;;;;;;20.13;13.95;;;14.90;43.70;;;;;;5034508;28;20197;-46
2022/11/09 01:55:51;;;;;;;18.98;13.85;;;14.90;43.70;;;;;;5033568;28;20169;-44
2022/11/09 01:58:35;;;;;;;20.05;12.68;;;14.80;43.70;;;;;;5034350;28;20170;-44
2022/11/09 02:01:01;;;;;;;16.33;12.25;;;14.80;43.60;;;;;;5034154;28;20178;-45
2022/11/09 02:03:41;;;;;;;15.75;11.18;;;14.80;43.80;;;;;;5034005;28;20278;-46
2022/11/09 02:06:10;;;;;;;15.38;12.60;;;14.80;43.80;;;;;;5033419;28;20170;-43
2022/11/09 02:08:36;;;;;;;16.50;13.57;;;14.80;43.80;;;;;;5033743;28;20221;-43
2022/11/09 02:11:17;;;;;;;17.30;12.50;;;14.80;43.70;;;;;;5034293;28;20201;-44
2022/11/09 02:14:03;;;;;;;17.45;12.77;;;14.80;43.70;;;;;;5033804;28;20413;-46
2022/11/09 02:16:29;;;;;;;16.20;13.70;;;14.80;43.80;;;;;;5033462;28;20170;-45
2022/11/09 02:18:57;;;;;;;15.82;12.95;;;14.80;43.70;;;;;;5033806;28;20178;-44
2022/11/09 02:21:26;;;;;;;18.70;13.98;;;14.70;43.70;;;;;;5033832;28;20269;-45
2022/11/09 02:23:51;;;;;;;16.63;12.80;;;14.70;43.70;;;;;;5033841;28;20244;-45
2022/11/09 02:27:00;;;;;;;17.03;11.93;;;14.70;43.90;;;;;;5033061;28;20178;-44
2022/11/09 02:29:31;;;;;;;16.27;12.20;;;14.70;43.80;;;;;;5031179;28;20547;-44
2022/11/09 02:32:00;;;;;;;15.52;10.90;;;14.60;43.90;;;;;;5031164;28;20166;-44
2022/11/09 02:34:26;;;;;;;17.08;13.70;;;14.60;44.10;;;;;;5031111;28;20186;-44
2022/11/09 02:36:52;;;;;;;18.47;12.77;;;14.60;44.00;;;;;;5030126;28;20653;-45
2022/11/09 02:39:21;;;;;;;23.07;13.17;;;14.60;44.00;;;;;;5030998;28;20665;-44
2022/11/09 02:41:58;;;;;;;17.55;11.70;;;14.70;44.10;;;;;;5030814;28;20265;-44
2022/11/09 02:44:26;;;;;;;20.38;13.38;;;14.70;43.90;;;;;;5031075;28;20272;-44
2022/11/09 02:46:52;;;;;;;18.50;13.35;;;14.70;43.80;;;;;;5030215;28;20194;-44
2022/11/09 02:49:18;;;;;;;18.43;11.73;;;14.70;43.70;;;;;;5030733;28;20244;-43
2022/11/09 02:51:44;;;;;;;14.83;12.13;;;14.70;43.70;;;;;;5031370;28;20721;-47
2022/11/09 02:54:09;;;;;;;24.83;13.87;;;14.70;43.80;;;;;;5031974;28;20189;-45
2022/11/09 02:56:35;;;;;;;18.23;13.40;;;14.70;43.80;;;;;;5031317;28;20894;-45
2022/11/09 02:59:02;;;;;;;22.30;13.97;;;14.70;43.90;;;;;;5015317;28;20624;-45
2022/11/09 03:01:28;;;;;;;20.02;12.93;;;14.60;43.70;;;;;;5034280;28;20458;-48
2022/11/09 03:03:54;;;;;;;15.70;12.25;;;14.60;44.50;;;;;;5033579;28;20202;-43
2022/11/09 03:06:20;;;;;;;15.20;11.33;;;14.60;43.90;;;;;;5033450;28;20273;-45
2022/11/09 03:08:45;;;;;;;14.10;11.40;;;14.60;43.80;;;;;;5033784;28;20198;-44
2022/11/09 03:11:11;;;;;;;20.50;13.00;;;14.60;43.80;;;;;;5034180;28;20413;-44
2022/11/09 03:13:37;;;;;;;20.90;13.87;;;14.60;43.60;;;;;;5033864;28;20192;-44
2022/11/09 03:16:07;;;;;;;16.23;12.30;;;14.60;43.60;;;;;;5033063;28;20170;-45
2022/11/09 03:18:32;;;;;;;16.55;12.25;;;14.60;43.70;;;;;;5034209;28;20519;-44
2022/11/09 03:21:03;;;;;;;17.87;12.30;;;14.50;43.80;;;;;;5033597;28;20174;-45
2022/11/09 03:23:29;;;;;;;17.38;12.73;;;14.50;43.70;;;;;;5033203;28;20205;-45
2022/11/09 03:25:55;;;;;;;16.00;13.07;;;14.50;44.00;;;;;;5032489;28;20181;-47
2022/11/09 03:28:20;;;;;;;15.63;12.20;;;14.40;43.80;;;;;;5033580;28;20433;-45
2022/11/09 03:30:46;;;;;;;18.27;12.63;;;14.40;43.90;;;;;;5033049;28;20201;-46
2022/11/09 03:33:13;;;;;;;16.60;11.80;;;14.30;44.10;;;;;;5033018;28;20685;-45
2022/11/09 03:35:39;;;;;;;18.50;13.00;;;14.40;44.10;;;;;;5032479;28;20258;-45
2022/11/09 03:38:05;;;;;;;18.33;12.18;;;14.30;44.20;;;;;;5033114;28;20184;-46
2022/11/09 03:40:31;;;;;;;15.73;12.05;;;14.40;44.10;;;;;;5032891;28;20174;-45
2022/11/09 03:42:57;;;;;;;15.68;10.48;;;14.40;44.00;;;;;;5032751;28;20213;-46
2022/11/09 03:45:24;;;;;;;20.80;13.13;;;14.40;44.00;;;;;;5032771;28;20247;-45
2022/11/09 03:47:50;;;;;;;16.58;11.55;;;14.40;43.90;;;;;;5031720;28;20455;-45
2022/11/09 03:50:16;;;;;;;20.10;14.20;;;14.40;43.80;;;;;;5032735;28;20225;-46
2022/11/09 03:52:46;;;;;;;18.23;12.13;;;14.30;43.90;;;;;;5032878;28;20424;-46
2022/11/09 03:55:13;;;;;;;15.40;11.90;;;14.30;44.10;;;;;;5032449;28;20526;-45
2022/11/09 03:57:39;;;;;;;17.52;11.73;;;14.20;44.20;;;;;;5031994;28;20166;-44
2022/11/09 04:00:07;;;;;;;14.35;9.93;;;14.20;45.00;;;;;;5032611;28;20189;-45
2022/11/09 04:02:33;;;;;;;15.95;11.32;;;14.20;44.30;;;;;;5032723;28;20201;-45
2022/11/09 04:04:58;;;;;;;17.75;13.15;;;14.20;44.20;;;;;;5032608;28;20216;-46
2022/11/09 04:07:24;;;;;;;18.73;12.60;;;14.30;44.30;;;;;;5032053;28;20581;-45
2022/11/09 04:09:50;;;;;;;16.10;12.40;;;14.30;44.20;;;;;;5032372;28;20685;-45
2022/11/09 04:12:15;;;;;;;15.10;11.57;;;14.30;44.30;;;;;;5032463;28;20194;-45
2022/11/09 04:14:41;;;;;;;23.20;11.80;;;14.20;44.20;;;;;;5032532;28;20169;-44
2022/11/09 04:17:07;;;;;;;15.80;11.10;;;14.20;44.10;;;;;;5032016;28;20170;-46
2022/11/09 04:19:33;;;;;;;17.70;11.17;;;14.20;44.10;;;;;;5032390;28;20204;-46
2022/11/09 04:21:58;;;;;;;14.77;11.20;;;14.20;44.10;;;;;;5032221;28;20704;-46
2022/11/09 04:24:24;;;;;;;13.80;11.20;;;14.20;44.20;;;;;;5032278;28;20417;-46
2022/11/09 04:26:50;;;;;;;20.70;14.03;;;14.20;44.20;;;;;;5031647;28;20182;-46
2022/11/09 04:29:16;;;;;;;20.40;12.30;;;14.10;44.20;;;;;;5032147;28;20194;-45
2022/11/09 04:31:41;;;;;;;15.63;11.77;;;14.10;44.20;;;;;;5032043;28;20177;-46
2022/11/09 04:34:07;;;;;;;16.27;11.13;;;14.10;44.30;;;;;;5032249;28;20205;-46
2022/11/09 04:36:33;;;;;;;15.20;12.67;;;14.10;44.30;;;;;;5031526;28;20177;-45
2022/11/09 04:38:59;;;;;;;14.10;11.50;;;14.10;44.50;;;;;;5032258;28;20174;-45
2022/11/09 04:41:25;;;;;;;18.90;13.20;;;14.10;44.50;;;;;;5032083;28;20181;-45
2022/11/09 04:43:51;;;;;;;19.88;15.63;;;14.10;44.50;;;;;;5031771;28;20214;-46
2022/11/09 04:46:17;;;;;;;15.60;11.60;;;14.10;44.50;;;;;;5031310;28;20182;-45
2022/11/09 04:48:43;;;;;;;16.03;12.10;;;14.10;44.40;;;;;;5031846;28;20197;-45
2022/11/09 04:51:09;;;;;;;18.43;12.73;;;14.10;44.30;;;;;;5032042;28;20170;-45
2022/11/09 04:53:36;;;;;;;17.25;12.13;;;14.10;44.30;;;;;;5031738;28;20435;-44
2022/11/09 04:56:03;;;;;;;17.13;12.38;;;14.10;44.30;;;;;;5031602;28;20264;-45
2022/11/09 04:58:29;;;;;;;17.08;12.80;;;14.10;44.30;;;;;;5032295;28;20197;-45
2022/11/09 05:01:09;;;;;;;16.67;12.30;;;14.10;44.20;;;;;;5035738;28;20205;-44
2022/11/09 05:03:35;;;;;;;18.60;12.90;;;14.10;44.30;;;;;;5035581;28;20424;-47
2022/11/09 05:06:30;;;;;;;16.10;11.37;;;14.10;44.30;;;;;;5035110;28;20181;-44
2022/11/09 05:08:46;;;;;;;17.92;12.02;;;14.10;44.30;;;;;;5035076;28;20197;-43
2022/11/09 05:11:12;;;;;;;14.77;11.10;;;14.10;44.40;;;;;;5035494;28;20174;-44
2022/11/09 05:13:37;;;;;;;19.37;13.97;;;14.10;44.20;;;;;;5035005;28;20665;-44
2022/11/09 05:16:03;;;;;;;16.63;12.30;;;14.10;44.20;;;;;;5034681;28;20166;-43
2022/11/09 05:18:29;;;;;;;14.15;11.30;;;14.10;44.30;;;;;;5035269;28;20174;-46
2022/11/09 05:20:58;;;;;;;17.40;11.70;;;14.10;44.30;;;;;;5035124;28;20531;-43
2022/11/09 05:26:08;;;;;;;15.27;12.00;;;14.10;43.90;;;;;;5034707;28;20273;-44
2022/11/09 05:28:34;;;;;;;15.43;11.30;;;14.00;44.00;;;;;;5034913;28;20296;-46
2022/11/09 05:31:00;;;;;;;16.37;9.80;;;14.00;44.30;;;;;;5034792;28;20408;-44
2022/11/09 05:33:26;;;;;;;15.73;11.20;;;14.00;44.40;;;;;;5034582;28;20507;-46
2022/11/09 05:35:55;;;;;;;17.53;12.47;;;14.00;44.40;;;;;;5035932;28;20264;-46
2022/11/09 05:38:21;;;;;;;17.73;12.20;;;14.10;44.40;;;;;;5037530;28;20641;-45
2022/11/09 05:40:54;;;;;;;18.77;12.20;;;14.20;44.00;;;;;;5036384;28;20185;-44
2022/11/09 05:43:20;;;;;;;15.00;11.30;;;14.10;44.10;;;;;;5036757;28;20209;-43
2022/11/09 05:45:46;;;;;;;14.97;11.13;;;14.10;43.90;;;;;;5035975;28;20246;-44
2022/11/09 05:48:14;;;;;;;13.98;11.18;;;14.10;43.90;;;;;;5036593;28;20405;-45
2022/11/09 05:50:41;;;;;;;17.83;11.65;;;14.20;44.00;;;;;;5036424;28;20182;-44
2022/11/09 05:53:07;;;;;;;18.10;11.10;;;14.20;43.80;;;;;;5036069;28;20225;-44
2022/11/09 05:55:33;;;;;;;12.70;10.07;;;14.20;43.80;;;;;;5035647;28;20197;-46
2022/11/09 05:57:59;;;;;;;15.60;10.23;;;14.20;43.70;;;;;;5036046;28;20612;-47
2022/11/09 06:00:25;;;;;;;16.60;12.10;;;14.30;43.70;;;;;;5036414;28;20260;-45
2022/11/09 06:02:51;;;;;;;14.93;10.80;;;14.30;43.60;;;;;;5035708;28;20432;-44
2022/11/09 06:05:19;;;;;;;16.13;11.67;;;14.30;43.60;;;;;;5035588;28;20174;-45
2022/11/09 06:07:44;;;;;;;21.85;12.85;;;14.30;43.50;;;;;;5035663;28;20541;-44
2022/11/09 06:10:11;;;;;;;16.63;12.77;;;14.40;43.50;;;;;;5035276;28;20257;-44
2022/11/09 06:12:37;;;;;;;17.35;12.68;;;14.40;43.40;;;;;;5035913;28;20448;-46
2022/11/09 06:15:04;;;;;;;13.80;10.27;;;14.30;43.50;;;;;;5036146;28;20581;-45
2022/11/09 06:17:30;;;;;;;15.80;11.18;;;14.30;43.60;;;;;;5034869;28;20186;-46
2022/11/09 06:19:55;;;;;;;17.50;10.63;;;14.20;43.60;;;;;;5036169;28;20190;-46
2022/11/09 06:22:21;;;;;;;15.87;11.63;;;14.20;43.70;;;;;;5035735;28;20859;-46
2022/11/09 06:24:47;;;;;;;16.10;11.53;;;14.20;43.70;;;;;;5035384;28;20174;-45
2022/11/09 06:27:12;;;;;;;16.20;11.83;;;14.20;43.60;;;;;;5035011;28;20227;-45
2022/11/09 06:29:38;;;;;;;16.20;9.47;;;14.30;43.60;;;;;;5035813;28;20558;-46
2022/11/09 06:32:04;;;;;;;14.73;11.43;;;14.30;43.60;;;;;;5035369;28;20196;-46
2022/11/09 06:34:30;;;;;;;13.43;11.23;;;14.30;43.50;;;;;;5035500;28;20178;-46
2022/11/09 06:36:56;;;;;;;16.60;11.20;;;14.30;43.50;;;;;;5034391;28;20954;-46
2022/11/09 06:39:22;;;;;;;11.80;10.70;;;14.30;43.50;;;;;;5035477;28;20174;-46
2022/11/09 06:41:48;;;;;;;19.80;11.98;;;14.30;43.60;;;;;;5035143;28;20169;-46
2022/11/09 06:44:14;;;;;;;16.87;12.00;;;14.30;43.50;;;;;;5034133;28;20239;-46
2022/11/09 06:46:40;;;;;;;12.80;10.98;;;14.30;43.50;;;;;;5034549;28;20815;-46
2022/11/09 06:49:05;;;;;;;17.30;11.67;;;14.30;43.20;;;;;;5034893;28;20205;-46
2022/11/09 06:51:31;;;;;;;17.77;10.57;;;14.30;43.40;;;;;;5034992;28;20904;-45
2022/11/09 06:53:57;;;;;;;13.97;10.77;;;14.30;43.50;;;;;;5034812;28;20194;-46
2022/11/09 06:56:23;;;;;;;17.33;13.10;;;14.30;43.60;;;;;;5034228;28;20228;-46
2022/11/09 06:58:48;;;;;;;13.30;9.90;;;14.30;43.60;;;;;;5050968;22;20226;-41
2022/11/09 07:01:16;;;;;;;15.83;11.60;;;14.40;43.40;;;;;;5030406;28;20661;-41
2022/11/09 07:03:42;;;;;;;17.17;11.50;;;14.40;43.30;;;;;;5032903;28;20166;-41
2022/11/09 07:06:10;;;;;;;13.87;10.87;;;14.40;43.20;;;;;;5032190;28;20193;-40
2022/11/09 07:08:36;;;;;;;17.45;11.77;;;14.40;43.20;;;;;;5032211;28;20300;-40
2022/11/09 07:11:11;;;;;;;14.07;10.98;;;14.40;43.20;;;;;;5032678;28;20173;-40
2022/11/09 07:13:37;;;;;;;16.10;11.90;;;14.40;43.20;;;;;;5032663;28;20165;-39
2022/11/09 07:16:04;;;;;;;15.80;11.45;;;14.30;43.30;;;;;;5032328;28;20178;-40
2022/11/09 07:18:30;;;;;;;19.65;11.52;;;14.40;43.30;;;;;;5032561;28;20193;-41
2022/11/09 07:20:55;;;;;;;14.73;11.23;;;14.30;43.30;;;;;;5032746;28;20166;-40
2022/11/09 07:23:21;;;;;;;15.63;11.07;;;14.40;43.30;;;;;;5031907;28;20174;-40
2022/11/09 07:25:47;;;;;;;13.77;10.97;;;14.30;43.40;;;;;;5031948;28;20170;-40
2022/11/09 07:28:13;;;;;;;16.70;10.87;;;14.20;43.60;;;;;;5032353;28;20185;-40
2022/11/09 07:30:39;;;;;;;15.93;12.23;;;14.30;43.50;;;;;;5032312;28;20186;-39
2022/11/09 07:33:13;;;;;;;18.10;10.03;;;14.40;43.70;;;;;;5032760;28;20174;-41
2022/11/09 07:35:39;;;;;;;14.70;10.73;;;14.40;43.30;;;;;;5031634;28;20922;-41
2022/11/09 07:38:05;;;;;;;13.20;11.40;;;14.40;43.30;;;;;;5032495;28;20193;-41
2022/11/09 07:40:31;;;;;;;16.43;11.73;;;14.40;43.30;;;;;;5032168;28;20896;-41
2022/11/09 07:42:58;;;;;;;16.67;11.00;;;14.50;43.30;;;;;;5032513;28;20512;-43
2022/11/09 07:45:24;;;;;;;16.13;11.40;;;14.50;43.30;;;;;;5032227;28;20542;-41
2022/11/09 07:48:02;;;;;;;17.42;11.60;;;14.50;43.40;;;;;;5032029;28;20696;-41
2022/11/09 07:50:28;;;;;;;15.85;10.98;;;14.50;43.20;;;;;;5032043;28;20196;-41
2022/11/09 07:52:55;;;;;;;14.25;10.45;;;14.50;43.30;;;;;;5032120;28;20755;-40
2022/11/09 07:55:21;;;;;;;18.73;12.60;;;14.50;43.10;;;;;;5032047;28;20162;-41
2022/11/09 07:57:47;;;;;;;17.48;10.20;;;14.40;43.20;;;;;;5031879;28;20343;-41
2022/11/09 08:00:14;;;;;;;15.73;11.33;;;14.40;43.30;;;;;;5031961;28;20673;-41
2022/11/09 08:02:40;;;;;;;14.80;11.02;;;14.40;43.20;;;;;;5031991;28;20170;-39
2022/11/09 08:05:06;;;;;;;14.93;10.63;;;14.40;43.20;;;;;;5032565;28;20185;-41
2022/11/09 08:07:33;;;;;;;14.48;11.63;;;14.50;43.20;;;;;;5031279;28;20466;-40
2022/11/09 08:09:59;;;;;;;17.17;12.40;;;14.40;43.00;;;;;;5030682;28;20747;-40
2022/11/09 08:12:24;;;;;;;19.10;13.00;;;14.40;43.20;;;;;;5030636;28;20166;-40
2022/11/09 08:14:50;;;;;;;15.57;12.63;;;14.40;43.20;;;;;;5031832;28;20768;-41
2022/11/09 08:17:16;;;;;;;16.17;11.70;;;14.50;43.10;;;;;;5031341;28;20596;-41
2022/11/09 08:19:41;;;;;;;18.60;11.83;;;14.40;42.70;;;;;;5031717;28;20196;-40
2022/11/09 08:22:08;;;;;;;13.63;11.50;;;14.40;43.10;;;;;;5031853;28;20194;-40
2022/11/09 08:24:33;;;;;;;21.75;13.55;;;14.50;43.20;;;;;;5031806;28;20641;-42
2022/11/09 08:26:59;;;;;;;18.23;13.43;;;14.40;43.20;;;;;;5031238;28;20224;-42
2022/11/09 08:29:25;;;;;;;15.10;10.43;;;14.40;43.00;;;;;;5031579;28;20194;-41
2022/11/09 08:31:51;;;;;;;18.60;11.30;;;14.40;43.20;;;;;;5032076;28;20530;-42
2022/11/09 08:34:17;;;;;;;20.08;12.10;;;14.40;43.50;;;;;;5033633;28;20209;-41
2022/11/09 08:36:43;;;;;;;13.15;10.05;;;14.40;43.40;;;;;;5035038;28;20169;-42
2022/11/09 08:39:09;;;;;;;15.03;11.37;;;14.40;43.30;;;;;;5035784;28;20737;-42
2022/11/09 08:41:35;;;;;;;16.13;12.90;;;14.40;42.90;;;;;;5035847;28;20162;-41
2022/11/09 08:44:01;;;;;;;12.85;9.60;;;14.40;43.30;;;;;;5035421;28;20439;-41
2022/11/09 08:46:27;;;;;;;14.20;10.93;;;14.40;43.30;;;;;;5035037;28;20174;-41
2022/11/09 08:48:52;;;;;;;17.73;11.13;;;14.40;43.50;;;;;;5035263;28;20201;-41
2022/11/09 08:51:18;;;;;;;15.90;11.40;;;14.50;43.20;;;;;;5035417;28;20170;-42
2022/11/09 08:53:44;;;;;;;15.23;11.13;;;14.50;43.50;;;;;;5035310;28;20166;-41
2022/11/09 08:56:11;;;;;;;15.30;12.40;;;14.70;43.40;;;;;;5034685;28;20165;-43
2022/11/09 08:58:38;;;;;;;14.88;10.63;;;14.60;43.40;;;;;;5034993;28;20201;-41
2022/11/09 09:01:10;;;;;;;14.88;10.30;;;14.70;43.40;;;;;;5035168;28;20246;-41
2022/11/09 09:03:36;;;;;;;17.52;12.05;;;14.70;43.40;;;;;;5035119;28;20716;-42
2022/11/09 09:06:06;;;;;;;17.03;11.10;;;14.70;43.40;;;;;;5034538;28;20274;-42
2022/11/09 09:08:32;;;;;;;16.90;10.43;;;14.70;43.40;;;;;;5034837;28;20804;-41
2022/11/09 09:11:02;;;;;;;16.57;11.53;;;14.70;43.90;;;;;;5034948;28;20174;-41
2022/11/09 09:13:28;;;;;;;15.77;10.88;;;14.70;43.20;;;;;;5035093;28;20166;-41
2022/11/09 09:15:53;;;;;;;15.98;12.65;;;14.80;43.30;;;;;;5034301;28;20177;-42
2022/11/09 09:18:19;;;;;;;14.83;10.77;;;14.80;43.30;;;;;;5034813;28;20186;-41
2022/11/09 09:20:45;;;;;;;15.63;11.03;;;14.90;43.10;;;;;;5034890;28;20166;-42
2022/11/09 09:23:13;;;;;;;17.50;10.97;;;14.90;42.60;;;;;;5034743;28;20772;-42
2022/11/09 09:25:38;;;;;;;12.68;10.40;;;14.90;42.90;;;;;;5033988;28;20257;-42
2022/11/09 09:28:04;;;;;;;12.23;9.70;;;15.00;42.80;;;;;;5034578;28;20285;-42
2022/11/09 09:30:30;;;;;;;13.07;9.43;;;14.90;42.50;;;;;;5034611;28;20230;-41
2022/11/09 09:32:59;;;;;;;15.87;11.33;;;14.90;42.70;;;;;;5034632;28;20404;-42
2022/11/09 09:35:26;;;;;;;14.20;9.88;;;14.90;42.70;;;;;;5034430;28;20205;-43
2022/11/09 09:37:52;;;;;;;13.77;10.35;;;14.90;42.70;;;;;;5033962;28;20720;-41
2022/11/09 09:40:35;;;;;;;13.27;9.85;;;14.90;42.50;;;;;;5034416;28;20201;-41
2022/11/09 09:43:02;;;;;;;11.40;9.00;;;14.90;42.40;;;;;;5034454;28;20154;-42
2022/11/09 09:45:32;;;;;;;11.35;8.88;;;14.90;42.80;;;;;;5033130;28;20225;-42
2022/11/09 09:47:58;;;;;;;13.35;8.30;;;14.90;42.70;;;;;;5034511;28;20224;-41
2022/11/09 09:50:28;;;;;;;11.33;8.77;;;15.00;42.60;;;;;;5034450;28;20578;-42
2022/11/09 09:53:20;;;;;;;10.52;8.05;;;15.00;42.40;;;;;;5034218;28;20173;-41
2022/11/09 09:55:53;;;;;;;9.45;8.20;;;15.10;42.70;;;;;;5033607;28;20177;-41
2022/11/09 09:58:32;;;;;;;12.02;8.90;;;15.00;42.50;;;;;;5033981;28;20205;-42
2022/11/09 10:01:14;;;;;;;11.57;8.52;;;15.00;42.50;;;;;;5034040;28;20159;-42
2022/11/09 10:03:39;;;;;;;13.10;8.10;;;15.10;42.70;;;;;;5034091;28;20626;-41
2022/11/09 10:06:46;;;;;;;10.90;8.77;;;15.10;42.90;;;;;;5033409;28;20296;-41
2022/11/09 10:09:45;;;;;;;12.32;8.52;;;15.20;43.00;;;;;;5033703;28;20491;-42
2022/11/09 10:12:19;;;;;;;13.63;8.90;;;15.10;43.20;;;;;;5033000;28;20177;-41
2022/11/09 10:14:54;;;;;;;12.55;9.15;;;15.00;43.20;;;;;;5032665;28;20668;-41
2022/11/09 10:17:22;;;;;;;10.88;8.25;;;15.10;43.40;;;;;;5033180;28;20292;-41
2022/11/09 10:20:08;;;;;;;10.32;7.93;;;15.10;43.60;;;;;;5033495;28;20198;-41
2022/11/09 10:22:39;;;;;;;14.27;8.68;;;15.10;43.70;;;;;;5033751;28;20170;-41
2022/11/09 10:25:26;;;;;;;10.35;8.23;;;15.10;43.70;;;;;;5033608;28;20258;-41
2022/11/09 10:27:58;;;;;;;11.93;7.97;;;15.10;43.90;;;;;;5033018;28;20665;-42
2022/11/09 10:30:26;;;;;;;9.25;7.97;;;15.10;44.00;;;;;;5033348;28;20236;-42
2022/11/09 10:33:00;;;;;;;13.45;8.20;;;15.20;43.90;;;;;;5033452;28;20231;-42
2022/11/09 10:35:35;;;;;;;14.15;9.02;;;15.20;43.80;;;;;;5033303;28;20554;-43
2022/11/09 10:38:01;;;;;;;11.07;7.75;;;15.20;43.60;;;;;;5033343;28;20227;-41
2022/11/09 10:40:39;;;;;;;10.97;7.60;;;15.20;43.60;;;;;;5033208;28;20245;-42
2022/11/09 10:43:09;;;;;;;9.13;7.00;;;15.30;43.60;;;;;;5033517;28;20412;-42
2022/11/09 10:45:40;;;;;;;15.02;7.93;;;15.30;43.30;;;;;;5033008;28;20189;-41
2022/11/09 10:48:08;;;;;;;9.98;7.25;;;15.40;43.60;;;;;;5033262;28;20194;-42
2022/11/09 10:50:38;;;;;;;8.23;6.43;;;15.30;43.40;;;;;;5033135;28;20198;-42
2022/11/09 10:53:19;;;;;;;11.30;8.65;;;15.40;43.40;;;;;;5033054;28;20533;-43
2022/11/09 10:56:03;;;;;;;9.63;7.63;;;15.40;43.20;;;;;;5032680;28;20174;-42
2022/11/09 10:58:39;;;;;;;12.27;8.50;;;15.40;43.10;;;;;;5032815;28;20206;-42
2022/11/09 11:01:10;;;;;;;9.38;7.32;;;15.40;43.30;;;;;;5033171;28;20174;-43
2022/11/09 11:03:38;;;;;;;14.50;8.70;;;15.40;43.20;;;;;;5032868;28;20197;-43
2022/11/09 11:06:10;;;;;;;11.23;8.15;;;15.40;43.60;;;;;;5032479;28;20177;-42
2022/11/09 11:08:39;;;;;;;10.32;9.13;;;15.50;43.70;;;;;;5032786;28;20201;-42
2022/11/09 11:11:26;;;;;;;12.18;8.82;;;15.50;43.40;;;;;;5032675;28;20174;-42
2022/11/09 11:14:16;;;;;;;13.15;8.63;;;15.50;43.80;;;;;;5032878;28;20189;-42
2022/11/09 11:16:42;;;;;;;9.35;8.25;;;15.60;43.70;;;;;;5032033;28;20174;-42
2022/11/09 11:19:38;;;;;;;10.32;9.20;;;15.50;43.50;;;;;;5032673;28;20206;-43
2022/11/09 11:22:21;;;;;;;13.77;8.82;;;15.50;43.80;;;;;;5032631;28;20641;-42
2022/11/09 11:24:55;;;;;;;11.68;9.55;;;15.50;43.70;;;;;;5032503;28;20162;-42
2022/11/09 11:27:41;;;;;;;9.38;8.20;;;15.60;43.80;;;;;;5031965;28;20185;-42
2022/11/09 11:30:13;;;;;;;12.88;8.55;;;15.60;43.00;;;;;;5032419;28;20284;-42
2022/11/09 11:32:39;;;;;;;11.88;9.40;;;15.60;43.60;;;;;;5032347;28;20209;-42
2022/11/09 11:35:37;;;;;;;10.98;9.77;;;15.70;43.50;;;;;;5032288;28;20166;-43
2022/11/09 11:38:31;;;;;;;10.80;8.02;;;15.80;43.40;;;;;;5031915;28;20701;-42
2022/11/09 11:41:24;;;;;;;12.48;9.25;;;16.00;43.20;;;;;;5032216;28;20170;-43
2022/11/09 11:44:14;;;;;;;11.70;9.52;;;16.00;43.00;;;;;;5032545;28;20173;-42
2022/11/09 11:47:06;;;;;;;12.15;9.68;;;16.10;42.90;;;;;;5031727;28;20177;-42
2022/11/09 11:50:02;;;;;;;14.70;9.65;;;16.20;42.30;;;;;;5031919;28;20561;-42
2022/11/09 11:52:43;;;;;;;12.18;10.40;;;16.40;42.20;;;;;;5031920;28;20182;-42
2022/11/09 11:55:17;;;;;;;10.48;8.25;;;16.40;42.40;;;;;;5032160;28;20180;-43
2022/11/09 11:58:10;;;;;;;9.65;8.65;;;16.50;41.80;;;;;;5031275;28;20162;-43
2022/11/09 12:00:46;;;;;;;11.23;9.48;;;16.70;41.60;;;;;;5031954;28;20177;-42
2022/11/09 12:03:21;;;;;;;12.30;9.10;;;16.80;41.40;;;;;;5032099;28;20240;-42
2022/11/09 12:05:52;;;;;;;9.77;8.38;;;16.80;40.80;;;;;;5031462;28;20173;-42
2022/11/09 12:08:44;;;;;;;13.68;10.27;;;17.00;40.40;;;;;;5031958;28;20206;-42
2022/11/09 12:11:36;;;;;;;14.27;9.20;;;17.00;40.50;;;;;;5036108;28;20165;-42
2022/11/09 12:14:27;;;;;;;11.68;9.45;;;17.10;40.40;;;;;;5035455;28;20212;-43
2022/11/09 12:17:15;;;;;;;10.23;9.15;;;17.00;39.30;;;;;;5035786;28;20257;-43
2022/11/09 12:20:06;;;;;;;12.43;8.40;;;17.00;39.70;;;;;;5035909;28;20216;-42
2022/11/09 12:23:24;;;;;;;11.85;9.32;;;17.00;40.10;;;;;;5035908;28;20192;-42
2022/11/09 12:26:18;;;;;;;10.43;8.75;;;17.00;39.70;;;;;;5033037;28;20690;-42
2022/11/09 12:28:58;;;;;;;13.45;9.43;;;17.10;39.90;;;;;;5036205;28;20277;-42
2022/11/09 12:31:48;;;;;;;10.55;9.15;;;17.10;39.40;;;;;;5035844;28;20161;-43
2022/11/09 12:34:13;;;;;;;12.02;10.07;;;17.10;39.20;;;;;;5035793;28;20205;-43
2022/11/09 12:37:12;;;;;;;13.07;9.47;;;16.90;39.30;;;;;;5035234;28;20198;-42
2022/11/09 12:39:53;;;;;;;12.48;11.23;;;16.80;39.30;;;;;;5035592;28;20189;-42
2022/11/09 12:42:27;;;;;;;11.27;9.93;;;16.70;39.90;;;;;;5035887;28;20192;-43
2022/11/09 12:45:14;;;;;;;12.27;9.65;;;16.60;39.60;;;;;;5035558;28;20665;-42
2022/11/09 12:47:42;;;;;;;11.98;10.45;;;16.70;39.90;;;;;;5034747;28;20178;-43
2022/11/09 12:50:17;;;;;;;13.15;10.02;;;16.60;39.50;;;;;;5035438;28;20650;-42